Time,TemperatureF,DewpointF,PressureIn,WindDirection,WindDirectionDegrees,WindSpeedMPH,WindSpeedGustMPH,Humidity,HourlyPrecipIn,Conditions,Clouds,dailyrainin,SolarRadiationWatts/m^2,SoftwareType,DateUTC
2013-04-05 00:00:00,40.0,25.0,-100.00,SW,225,1.0,-999.0,54,-99.99,,,-99.99,0.000000,,2013-04-05 04:00:00,
2013-04-05 00:43:00,40.0,25.0,-100.00,SW,225,1.0,-999.0,54,-99.99,,,-99.99,0.000000,,2013-04-05 04:43:00,
2013-04-05 00:52:00,40.0,25.0,-100.00,SW,225,1.0,-999.0,54,-99.99,,,-99.99,0.000000,,2013-04-05 04:52:00,
2013-04-05 01:00:00,40.0,28.0,-100.00,WSW,247,1.0,-999.0,60,-99.99,,,-99.99,0.000000,,2013-04-05 05:00:00,
2013-04-05 01:42:00,40.0,28.0,-100.00,WSW,247,1.0,-999.0,60,-99.99,,,-99.99,0.000000,,2013-04-05 05:42:00,
2013-04-05 01:53:00,40.0,28.0,-100.00,WSW,247,1.0,-999.0,60,-99.99,,,-99.99,0.000000,,2013-04-05 05:53:00,
2013-04-05 03:00:00,41.0,23.0,-100.00,WNW,292,3.0,-999.0,48,-99.99,,,-99.99,0.000000,,2013-04-05 07:00:00,
2013-04-05 03:42:00,41.0,23.0,-100.00,WNW,292,3.0,-999.0,48,-99.99,,,-99.99,0.000000,,2013-04-05 07:42:00,
2013-04-05 03:53:00,41.0,23.0,-100.00,WNW,292,3.0,-999.0,48,-99.99,,,-99.99,0.000000,,2013-04-05 07:53:00,
2013-04-05 04:00:00,40.0,26.0,-100.00,NW,315,3.0,-999.0,55,-99.99,,,-99.99,0.000000,,2013-04-05 08:00:00,
2013-04-05 04:43:00,40.0,26.0,-100.00,NW,315,3.0,-999.0,55,-99.99,,,-99.99,0.000000,,2013-04-05 08:43:00,
2013-04-05 04:52:00,40.0,26.0,-100.00,NW,315,3.0,-999.0,55,-99.99,,,-99.99,0.000000,,2013-04-05 08:52:00,
2013-04-05 05:00:00,39.0,27.0,-100.00,WNW,292,2.0,-999.0,61,-99.99,,,-99.99,0.000000,,2013-04-05 09:00:00,
2013-04-05 05:43:00,39.0,27.0,-100.00,WNW,292,2.0,-999.0,61,-99.99,,,-99.99,0.000000,,2013-04-05 09:43:00,
2013-04-05 05:53:00,39.0,27.0,-100.00,WNW,292,2.0,-999.0,61,-99.99,,,-99.99,0.000000,,2013-04-05 09:53:00,
2013-04-05 06:00:00,37.0,28.0,-100.00,SE,135,5.0,-999.0,68,-99.99,,,-99.99,0.000000,,2013-04-05 10:00:00,
2013-04-05 06:43:00,37.0,28.0,-100.00,SE,135,5.0,-999.0,68,-99.99,,,-99.99,0.000000,,2013-04-05 10:43:00,
2013-04-05 06:53:00,37.0,28.0,-100.00,SE,135,5.0,-999.0,68,-99.99,,,-99.99,0.000000,,2013-04-05 10:53:00,
2013-04-05 07:00:00,36.0,28.0,-100.00,NNE,22,9.0,-999.0,70,-99.99,,,-99.99,0.000000,,2013-04-05 11:00:00,
2013-04-05 07:42:00,36.0,28.0,-100.00,NNE,22,9.0,-999.0,70,-99.99,,,-99.99,0.000000,,2013-04-05 11:42:00,
2013-04-05 07:52:00,36.0,28.0,-100.00,NNE,22,9.0,-999.0,70,-99.99,,,-99.99,0.000000,,2013-04-05 11:52:00,
2013-04-05 09:00:00,37.0,26.0,-100.00,NE,45,11.0,-999.0,65,-99.99,,,-99.99,154.279999,,2013-04-05 13:00:00,
2013-04-05 09:43:00,37.0,26.0,-100.00,NE,45,11.0,-999.0,65,-99.99,,,-99.99,154.279999,,2013-04-05 13:43:00,
2013-04-05 09:53:00,37.0,26.0,-100.00,NE,45,11.0,-999.0,65,-99.99,,,-99.99,154.279999,,2013-04-05 13:53:00,
2013-04-05 10:00:00,40.0,26.0,-100.00,NE,45,12.0,-999.0,57,-99.99,,,-99.99,329.440002,,2013-04-05 14:00:00,
2013-04-05 10:43:00,40.0,26.0,-100.00,NE,45,12.0,-999.0,57,-99.99,,,-99.99,329.440002,,2013-04-05 14:43:00,
2013-04-05 10:55:00,40.0,26.0,-100.00,NE,45,12.0,-999.0,57,-99.99,,,-99.99,329.440002,,2013-04-05 14:55:00,
2013-04-05 11:00:00,43.0,23.0,-100.00,NE,45,11.0,-999.0,45,-99.99,,,-99.99,502.279999,,2013-04-05 15:00:00,
2013-04-05 11:43:00,43.0,23.0,-100.00,NE,45,11.0,-999.0,45,-99.99,,,-99.99,502.279999,,2013-04-05 15:43:00,
2013-04-05 11:55:00,43.0,23.0,-100.00,NE,45,11.0,-999.0,45,-99.99,,,-99.99,502.279999,,2013-04-05 15:55:00,
2013-04-05 12:00:00,45.0,23.0,-100.00,ENE,67,9.0,-999.0,40,-99.99,,,-99.99,639.159973,,2013-04-05 16:00:00,
2013-04-05 12:43:00,45.0,23.0,-100.00,ENE,67,9.0,-999.0,40,-99.99,,,-99.99,639.159973,,2013-04-05 16:43:00,
2013-04-05 12:53:00,45.0,23.0,-100.00,ENE,67,9.0,-999.0,40,-99.99,,,-99.99,639.159973,,2013-04-05 16:53:00,
2013-04-05 13:00:00,47.0,21.0,-100.00,ESE,112,8.0,-999.0,35,-99.99,,,-99.99,728.479980,,2013-04-05 17:00:00,
2013-04-05 13:46:00,47.0,21.0,-100.00,ESE,112,8.0,-999.0,35,-99.99,,,-99.99,728.479980,,2013-04-05 17:46:00,
2013-04-05 13:53:00,47.0,21.0,-100.00,ESE,112,8.0,-999.0,35,-99.99,,,-99.99,728.479980,,2013-04-05 17:53:00,
2013-04-05 14:00:00,49.0,19.0,-100.00,South,180,8.0,-999.0,29,-99.99,,,-99.99,770.239990,,2013-04-05 18:00:00,
2013-04-05 14:43:00,49.0,19.0,-100.00,South,180,8.0,-999.0,29,-99.99,,,-99.99,770.239990,,2013-04-05 18:43:00,
2013-04-05 14:53:00,49.0,19.0,-100.00,South,180,8.0,-999.0,29,-99.99,,,-99.99,770.239990,,2013-04-05 18:53:00,
2013-04-05 15:00:00,51.0,16.0,-100.00,SSE,157,8.0,-999.0,24,-99.99,,,-99.99,757.479980,,2013-04-05 19:00:00,
2013-04-05 15:43:00,51.0,16.0,-100.00,SSE,157,8.0,-999.0,24,-99.99,,,-99.99,757.479980,,2013-04-05 19:43:00,
2013-04-05 15:53:00,51.0,16.0,-100.00,SSE,157,8.0,-999.0,24,-99.99,,,-99.99,757.479980,,2013-04-05 19:53:00,
2013-04-05 16:00:00,51.0,16.0,-100.00,West,270,7.0,-999.0,24,-99.99,,,-99.99,691.359985,,2013-04-05 20:00:00,
2013-04-05 16:33:00,51.0,16.0,-100.00,West,270,7.0,-999.0,24,-99.99,,,-99.99,691.359985,,2013-04-05 20:33:00,
2013-04-05 16:43:00,51.0,16.0,-100.00,West,270,7.0,-999.0,24,-99.99,,,-99.99,691.359985,,2013-04-05 20:43:00,
2013-04-05 16:53:00,51.0,16.0,-100.00,West,270,7.0,-999.0,24,-99.99,,,-99.99,691.359985,,2013-04-05 20:53:00,
2013-04-05 17:00:00,52.0,14.0,-100.00,SW,225,6.0,-999.0,21,-99.99,,,-99.99,540.559998,,2013-04-05 21:00:00,
2013-04-05 17:44:00,52.0,14.0,-100.00,SW,225,6.0,-999.0,21,-99.99,,,-99.99,540.559998,,2013-04-05 21:44:00,
2013-04-05 17:55:00,52.0,14.0,-100.00,SW,225,6.0,-999.0,21,-99.99,,,-99.99,540.559998,,2013-04-05 21:55:00,
2013-04-05 18:00:00,52.0,17.0,-100.00,SW,225,6.0,-999.0,24,-99.99,,,-99.99,443.119995,,2013-04-05 22:00:00,
2013-04-05 18:44:00,52.0,17.0,-100.00,SW,225,6.0,-999.0,24,-99.99,,,-99.99,443.119995,,2013-04-05 22:44:00,
2013-04-05 18:53:00,52.0,17.0,-100.00,SW,225,6.0,-999.0,24,-99.99,,,-99.99,443.119995,,2013-04-05 22:53:00,
2013-04-05 19:00:00,48.0,22.0,-100.00,West,270,7.0,-999.0,34,-99.99,,,-99.99,175.160004,,2013-04-05 23:00:00,
2013-04-05 19:43:00,48.0,22.0,-100.00,West,270,7.0,-999.0,34,-99.99,,,-99.99,175.160004,,2013-04-05 23:43:00,
2013-04-05 19:53:00,48.0,22.0,-100.00,West,270,7.0,-999.0,34,-99.99,,,-99.99,175.160004,,2013-04-05 23:53:00,
2013-04-05 21:00:00,40.0,23.0,-100.00,NW,315,5.0,-999.0,51,-99.99,,,-99.99,1.160000,,2013-04-06 01:00:00,
2013-04-05 21:43:00,40.0,23.0,-100.00,NW,315,5.0,-999.0,51,-99.99,,,-99.99,1.160000,,2013-04-06 01:43:00,
2013-04-05 21:53:00,40.0,23.0,-100.00,NW,315,5.0,-999.0,51,-99.99,,,-99.99,1.160000,,2013-04-06 01:53:00,
2013-04-05 22:00:00,37.0,23.0,-100.00,NW,315,4.0,-999.0,58,-99.99,,,-99.99,0.000000,,2013-04-06 02:00:00,
2013-04-05 22:43:00,37.0,23.0,-100.00,NW,315,4.0,-999.0,58,-99.99,,,-99.99,0.000000,,2013-04-06 02:43:00,
2013-04-05 22:53:00,37.0,23.0,-100.00,NW,315,4.0,-999.0,58,-99.99,,,-99.99,0.000000,,2013-04-06 02:53:00,
2013-04-05 23:00:00,35.0,24.0,-100.00,SW,225,3.0,-999.0,62,-99.99,,,-99.99,0.000000,,2013-04-06 03:00:00,
2013-04-05 23:43:00,35.0,24.0,-100.00,SW,225,3.0,-999.0,62,-99.99,,,-99.99,0.000000,,2013-04-06 03:43:00,
2013-04-05 23:55:00,35.0,24.0,-100.00,SW,225,3.0,-999.0,62,-99.99,,,-99.99,0.000000,,2013-04-06 03:55:00,